sensor_id;sensor_type;location;lat;lon;timestamp;P1;durP1;ratioP1;P2;durP2;ratioP2
19651;SDS011;9974;52.146;14.668;2022-10-19T00:01:13;14.70;;;8.60;;
19651;SDS011;9974;52.146;14.668;2022-10-19T00:03:45;16.13;;;8.10;;
19651;SDS011;9974;52.146;14.668;2022-10-19T00:06:17;16.95;;;7.68;;
19651;SDS011;9974;52.146;14.668;2022-10-19T00:09:07;14.07;;;8.18;;
19651;SDS011;9974;52.146;14.668;2022-10-19T00:11:39;19.30;;;7.53;;
19651;SDS011;9974;52.146;14.668;2022-10-19T00:14:10;11.90;;;7.15;;
19651;SDS011;9974;52.146;14.668;2022-10-19T00:16:39;19.17;;;7.43;;
19651;SDS011;9974;52.146;14.668;2022-10-19T00:19:07;14.15;;;7.00;;
19651;SDS011;9974;52.146;14.668;2022-10-19T00:21:36;9.95;;;6.50;;
19651;SDS011;9974;52.146;14.668;2022-10-19T00:24:03;11.25;;;6.20;;
19651;SDS011;9974;52.146;14.668;2022-10-19T00:26:30;10.13;;;7.05;;
19651;SDS011;9974;52.146;14.668;2022-10-19T00:28:56;10.05;;;5.65;;
19651;SDS011;9974;52.146;14.668;2022-10-19T00:31:22;9.70;;;5.38;;
19651;SDS011;9974;52.146;14.668;2022-10-19T00:33:49;14.80;;;5.93;;
19651;SDS011;9974;52.146;14.668;2022-10-19T00:36:16;8.63;;;5.32;;
19651;SDS011;9974;52.146;14.668;2022-10-19T00:38:48;12.32;;;5.28;;
19651;SDS011;9974;52.146;14.668;2022-10-19T00:41:15;15.40;;;4.88;;
19651;SDS011;9974;52.146;14.668;2022-10-19T00:43:49;7.40;;;4.47;;
19651;SDS011;9974;52.146;14.668;2022-10-19T00:46:15;9.40;;;4.22;;
19651;SDS011;9974;52.146;14.668;2022-10-19T00:48:41;7.60;;;4.25;;
19651;SDS011;9974;52.146;14.668;2022-10-19T00:51:06;9.23;;;4.32;;
19651;SDS011;9974;52.146;14.668;2022-10-19T00:53:32;11.30;;;4.78;;
19651;SDS011;9974;52.146;14.668;2022-10-19T00:56:02;9.00;;;4.28;;
19651;SDS011;9974;52.146;14.668;2022-10-19T00:58:33;6.35;;;4.38;;
19651;SDS011;9974;52.146;14.668;2022-10-19T01:00:59;7.75;;;4.07;;
19651;SDS011;9974;52.146;14.668;2022-10-19T01:03:27;9.18;;;3.90;;
19651;SDS011;9974;52.146;14.668;2022-10-19T01:05:53;6.68;;;3.65;;
19651;SDS011;9974;52.146;14.668;2022-10-19T01:08:19;9.85;;;3.78;;
19651;SDS011;9974;52.146;14.668;2022-10-19T01:10:50;9.85;;;3.75;;
19651;SDS011;9974;52.146;14.668;2022-10-19T01:16:23;15.98;;;5.15;;
19651;SDS011;9974;52.146;14.668;2022-10-19T01:19:20;9.02;;;3.58;;
19651;SDS011;9974;52.146;14.668;2022-10-19T01:22:18;7.28;;;3.45;;
19651;SDS011;9974;52.146;14.668;2022-10-19T01:31:51;13.32;;;3.53;;
19651;SDS011;9974;52.146;14.668;2022-10-19T01:34:39;8.88;;;3.60;;
19651;SDS011;9974;52.146;14.668;2022-10-19T01:37:16;7.18;;;3.15;;
19651;SDS011;9974;52.146;14.668;2022-10-19T01:40:02;6.90;;;4.15;;
19651;SDS011;9974;52.146;14.668;2022-10-19T01:45:53;9.27;;;3.22;;
19651;SDS011;9974;52.146;14.668;2022-10-19T01:48:29;6.57;;;3.30;;
19651;SDS011;9974;52.146;14.668;2022-10-19T01:51:00;9.18;;;4.40;;
19651;SDS011;9974;52.146;14.668;2022-10-19T01:53:33;13.32;;;5.28;;
19651;SDS011;9974;52.146;14.668;2022-10-19T01:56:05;8.35;;;4.35;;
19651;SDS011;9974;52.146;14.668;2022-10-19T01:58:32;10.50;;;4.22;;
19651;SDS011;9974;52.146;14.668;2022-10-19T02:01:02;10.52;;;3.60;;
19651;SDS011;9974;52.146;14.668;2022-10-19T02:03:31;8.07;;;4.47;;
19651;SDS011;9974;52.146;14.668;2022-10-19T02:05:59;12.15;;;5.38;;
19651;SDS011;9974;52.146;14.668;2022-10-19T02:08:30;10.95;;;4.75;;
19651;SDS011;9974;52.146;14.668;2022-10-19T02:11:02;11.32;;;4.30;;
19651;SDS011;9974;52.146;14.668;2022-10-19T02:13:29;12.10;;;4.43;;
19651;SDS011;9974;52.146;14.668;2022-10-19T02:15:56;17.42;;;5.60;;
19651;SDS011;9974;52.146;14.668;2022-10-19T02:18:27;8.55;;;5.05;;
19651;SDS011;9974;52.146;14.668;2022-10-19T02:20:57;6.38;;;3.72;;
19651;SDS011;9974;52.146;14.668;2022-10-19T02:23:26;10.45;;;5.20;;
19651;SDS011;9974;52.146;14.668;2022-10-19T02:25:52;9.90;;;3.85;;
19651;SDS011;9974;52.146;14.668;2022-10-19T02:28:19;11.32;;;4.55;;
19651;SDS011;9974;52.146;14.668;2022-10-19T02:30:46;9.32;;;4.47;;
19651;SDS011;9974;52.146;14.668;2022-10-19T02:33:12;12.10;;;4.75;;
19651;SDS011;9974;52.146;14.668;2022-10-19T02:35:38;8.00;;;3.92;;
19651;SDS011;9974;52.146;14.668;2022-10-19T02:38:04;7.32;;;3.30;;
19651;SDS011;9974;52.146;14.668;2022-10-19T02:40:37;10.02;;;4.05;;
19651;SDS011;9974;52.146;14.668;2022-10-19T02:43:11;7.93;;;3.90;;
19651;SDS011;9974;52.146;14.668;2022-10-19T02:45:43;9.30;;;3.88;;
19651;SDS011;9974;52.146;14.668;2022-10-19T02:48:20;7.68;;;3.80;;
19651;SDS011;9974;52.146;14.668;2022-10-19T02:50:47;9.88;;;3.72;;
19651;SDS011;9974;52.146;14.668;2022-10-19T02:53:13;6.70;;;3.55;;
19651;SDS011;9974;52.146;14.668;2022-10-19T02:55:41;8.80;;;3.50;;
19651;SDS011;9974;52.146;14.668;2022-10-19T02:58:06;9.38;;;3.25;;
19651;SDS011;9974;52.146;14.668;2022-10-19T03:00:33;6.07;;;3.00;;
19651;SDS011;9974;52.146;14.668;2022-10-19T03:02:58;7.95;;;3.45;;
19651;SDS011;9974;52.146;14.668;2022-10-19T03:05:24;11.40;;;3.47;;
19651;SDS011;9974;52.146;14.668;2022-10-19T03:07:50;8.30;;;3.28;;
19651;SDS011;9974;52.146;14.668;2022-10-19T03:10:16;7.15;;;3.38;;
19651;SDS011;9974;52.146;14.668;2022-10-19T03:12:42;9.50;;;4.05;;
19651;SDS011;9974;52.146;14.668;2022-10-19T03:15:09;11.05;;;4.20;;
19651;SDS011;9974;52.146;14.668;2022-10-19T03:17:39;11.40;;;3.67;;
19651;SDS011;9974;52.146;14.668;2022-10-19T03:20:05;7.97;;;3.55;;
19651;SDS011;9974;52.146;14.668;2022-10-19T03:22:31;7.70;;;4.50;;
19651;SDS011;9974;52.146;14.668;2022-10-19T03:24:57;14.75;;;3.75;;
19651;SDS011;9974;52.146;14.668;2022-10-19T03:27:23;10.13;;;4.05;;
19651;SDS011;9974;52.146;14.668;2022-10-19T03:29:49;11.77;;;4.00;;
19651;SDS011;9974;52.146;14.668;2022-10-19T03:32:15;5.88;;;3.63;;
19651;SDS011;9974;52.146;14.668;2022-10-19T03:34:41;8.55;;;3.20;;
19651;SDS011;9974;52.146;14.668;2022-10-19T03:37:07;7.28;;;3.55;;
19651;SDS011;9974;52.146;14.668;2022-10-19T03:39:32;8.40;;;4.18;;
19651;SDS011;9974;52.146;14.668;2022-10-19T03:41:58;6.75;;;3.28;;
19651;SDS011;9974;52.146;14.668;2022-10-19T03:44:24;6.93;;;3.70;;
19651;SDS011;9974;52.146;14.668;2022-10-19T03:46:50;7.47;;;3.35;;
19651;SDS011;9974;52.146;14.668;2022-10-19T03:49:16;6.75;;;3.20;;
19651;SDS011;9974;52.146;14.668;2022-10-19T03:51:42;6.28;;;3.30;;
19651;SDS011;9974;52.146;14.668;2022-10-19T03:54:12;11.55;;;2.72;;
19651;SDS011;9974;52.146;14.668;2022-10-19T03:56:40;13.20;;;2.85;;
19651;SDS011;9974;52.146;14.668;2022-10-19T03:59:06;9.93;;;2.80;;
19651;SDS011;9974;52.146;14.668;2022-10-19T04:01:36;5.93;;;2.42;;
19651;SDS011;9974;52.146;14.668;2022-10-19T04:04:08;5.55;;;2.65;;
19651;SDS011;9974;52.146;14.668;2022-10-19T04:06:39;9.82;;;2.97;;
19651;SDS011;9974;52.146;14.668;2022-10-19T04:09:06;11.48;;;2.35;;
19651;SDS011;9974;52.146;14.668;2022-10-19T04:11:34;7.38;;;3.13;;
19651;SDS011;9974;52.146;14.668;2022-10-19T04:14:01;7.85;;;3.00;;
19651;SDS011;9974;52.146;14.668;2022-10-19T04:16:27;10.85;;;3.05;;
19651;SDS011;9974;52.146;14.668;2022-10-19T04:18:54;3.50;;;2.42;;
19651;SDS011;9974;52.146;14.668;2022-10-19T04:24:03;6.93;;;2.60;;
19651;SDS011;9974;52.146;14.668;2022-10-19T04:26:40;11.30;;;2.70;;
19651;SDS011;9974;52.146;14.668;2022-10-19T04:29:17;8.18;;;2.65;;
19651;SDS011;9974;52.146;14.668;2022-10-19T04:31:44;6.72;;;2.92;;
19651;SDS011;9974;52.146;14.668;2022-10-19T04:34:14;5.13;;;2.35;;
19651;SDS011;9974;52.146;14.668;2022-10-19T04:36:40;4.50;;;2.13;;
19651;SDS011;9974;52.146;14.668;2022-10-19T04:39:06;9.75;;;2.60;;
19651;SDS011;9974;52.146;14.668;2022-10-19T04:41:33;6.40;;;2.92;;
19651;SDS011;9974;52.146;14.668;2022-10-19T04:44:01;5.13;;;2.08;;
19651;SDS011;9974;52.146;14.668;2022-10-19T04:46:28;10.73;;;2.95;;
19651;SDS011;9974;52.146;14.668;2022-10-19T04:48:55;8.57;;;3.38;;
19651;SDS011;9974;52.146;14.668;2022-10-19T04:51:21;5.05;;;2.38;;
19651;SDS011;9974;52.146;14.668;2022-10-19T04:53:48;9.65;;;2.80;;
19651;SDS011;9974;52.146;14.668;2022-10-19T04:56:18;6.28;;;2.75;;
19651;SDS011;9974;52.146;14.668;2022-10-19T04:58:46;5.40;;;2.60;;
19651;SDS011;9974;52.146;14.668;2022-10-19T05:01:17;11.32;;;2.70;;
19651;SDS011;9974;52.146;14.668;2022-10-19T05:03:45;6.60;;;2.38;;
19651;SDS011;9974;52.146;14.668;2022-10-19T05:06:12;5.00;;;2.55;;
19651;SDS011;9974;52.146;14.668;2022-10-19T05:08:39;8.15;;;4.03;;
19651;SDS011;9974;52.146;14.668;2022-10-19T05:11:06;11.38;;;2.90;;
19651;SDS011;9974;52.146;14.668;2022-10-19T05:13:37;6.07;;;2.80;;
19651;SDS011;9974;52.146;14.668;2022-10-19T05:16:03;6.95;;;2.50;;
19651;SDS011;9974;52.146;14.668;2022-10-19T05:18:31;7.53;;;3.17;;
19651;SDS011;9974;52.146;14.668;2022-10-19T05:21:02;6.90;;;2.72;;
19651;SDS011;9974;52.146;14.668;2022-10-19T05:23:29;5.00;;;3.13;;
19651;SDS011;9974;52.146;14.668;2022-10-19T05:28:46;9.57;;;2.80;;
19651;SDS011;9974;52.146;14.668;2022-10-19T05:31:23;6.30;;;2.70;;
19651;SDS011;9974;52.146;14.668;2022-10-19T05:33:52;7.93;;;2.92;;
19651;SDS011;9974;52.146;14.668;2022-10-19T05:36:21;5.90;;;2.80;;
19651;SDS011;9974;52.146;14.668;2022-10-19T05:38:53;8.48;;;3.08;;
19651;SDS011;9974;52.146;14.668;2022-10-19T05:41:21;7.35;;;2.50;;
19651;SDS011;9974;52.146;14.668;2022-10-19T05:43:51;6.30;;;2.88;;
19651;SDS011;9974;52.146;14.668;2022-10-19T05:46:22;7.95;;;2.78;;
19651;SDS011;9974;52.146;14.668;2022-10-19T05:48:48;10.63;;;2.65;;
19651;SDS011;9974;52.146;14.668;2022-10-19T05:51:17;6.82;;;3.08;;
19651;SDS011;9974;52.146;14.668;2022-10-19T05:53:44;6.97;;;2.83;;
19651;SDS011;9974;52.146;14.668;2022-10-19T05:56:14;8.15;;;3.03;;
19651;SDS011;9974;52.146;14.668;2022-10-19T05:58:46;7.03;;;2.92;;
19651;SDS011;9974;52.146;14.668;2022-10-19T06:01:13;5.65;;;2.75;;
19651;SDS011;9974;52.146;14.668;2022-10-19T06:03:39;13.45;;;3.28;;
19651;SDS011;9974;52.146;14.668;2022-10-19T06:06:06;9.00;;;3.22;;
19651;SDS011;9974;52.146;14.668;2022-10-19T06:08:33;10.45;;;3.38;;
19651;SDS011;9974;52.146;14.668;2022-10-19T06:11:03;8.57;;;3.70;;
19651;SDS011;9974;52.146;14.668;2022-10-19T06:13:35;7.55;;;3.35;;
19651;SDS011;9974;52.146;14.668;2022-10-19T06:16:02;7.97;;;2.97;;
19651;SDS011;9974;52.146;14.668;2022-10-19T06:18:29;6.13;;;2.97;;
19651;SDS011;9974;52.146;14.668;2022-10-19T06:20:59;5.43;;;2.25;;
19651;SDS011;9974;52.146;14.668;2022-10-19T06:23:27;10.15;;;3.30;;
19651;SDS011;9974;52.146;14.668;2022-10-19T06:25:54;3.60;;;1.92;;
19651;SDS011;9974;52.146;14.668;2022-10-19T06:28:20;7.82;;;2.13;;
19651;SDS011;9974;52.146;14.668;2022-10-19T06:30:46;8.52;;;2.10;;
19651;SDS011;9974;52.146;14.668;2022-10-19T06:33:12;6.20;;;1.98;;
19651;SDS011;9974;52.146;14.668;2022-10-19T06:35:38;9.52;;;2.25;;
19651;SDS011;9974;52.146;14.668;2022-10-19T06:38:06;5.97;;;1.90;;
19651;SDS011;9974;52.146;14.668;2022-10-19T06:40:33;7.20;;;1.88;;
19651;SDS011;9974;52.146;14.668;2022-10-19T06:42:59;16.13;;;2.13;;
19651;SDS011;9974;52.146;14.668;2022-10-19T06:45:25;6.90;;;2.50;;
19651;SDS011;9974;52.146;14.668;2022-10-19T06:47:51;7.90;;;2.17;;
19651;SDS011;9974;52.146;14.668;2022-10-19T06:50:17;11.30;;;2.17;;
19651;SDS011;9974;52.146;14.668;2022-10-19T06:52:44;5.97;;;2.08;;
19651;SDS011;9974;52.146;14.668;2022-10-19T06:55:10;5.00;;;1.75;;
19651;SDS011;9974;52.146;14.668;2022-10-19T06:57:36;4.80;;;2.47;;
19651;SDS011;9974;52.146;14.668;2022-10-19T07:00:03;7.88;;;2.30;;
19651;SDS011;9974;52.146;14.668;2022-10-19T07:02:32;12.70;;;4.40;;
19651;SDS011;9974;52.146;14.668;2022-10-19T07:04:57;3.90;;;1.92;;
19651;SDS011;9974;52.146;14.668;2022-10-19T07:07:23;5.43;;;1.65;;
19651;SDS011;9974;52.146;14.668;2022-10-19T07:09:49;8.70;;;2.95;;
19651;SDS011;9974;52.146;14.668;2022-10-19T07:12:15;7.18;;;2.05;;
19651;SDS011;9974;52.146;14.668;2022-10-19T07:14:41;6.20;;;1.85;;
19651;SDS011;9974;52.146;14.668;2022-10-19T07:17:08;4.25;;;1.95;;
19651;SDS011;9974;52.146;14.668;2022-10-19T07:19:36;10.15;;;1.92;;
19651;SDS011;9974;52.146;14.668;2022-10-19T07:22:02;4.63;;;1.63;;
19651;SDS011;9974;52.146;14.668;2022-10-19T07:24:27;8.57;;;1.77;;
19651;SDS011;9974;52.146;14.668;2022-10-19T07:26:53;8.30;;;1.77;;
19651;SDS011;9974;52.146;14.668;2022-10-19T07:29:19;5.93;;;1.20;;
19651;SDS011;9974;52.146;14.668;2022-10-19T07:31:45;1.25;;;1.08;;
19651;SDS011;9974;52.146;14.668;2022-10-19T07:34:12;3.10;;;1.48;;
19651;SDS011;9974;52.146;14.668;2022-10-19T07:36:38;2.97;;;1.23;;
19651;SDS011;9974;52.146;14.668;2022-10-19T07:39:08;12.35;;;1.38;;
19651;SDS011;9974;52.146;14.668;2022-10-19T07:41:35;7.13;;;1.10;;
19651;SDS011;9974;52.146;14.668;2022-10-19T07:44:01;5.28;;;1.10;;
19651;SDS011;9974;52.146;14.668;2022-10-19T07:46:28;3.83;;;1.00;;
19651;SDS011;9974;52.146;14.668;2022-10-19T07:48:59;4.03;;;1.05;;
19651;SDS011;9974;52.146;14.668;2022-10-19T07:51:25;3.03;;;1.13;;
19651;SDS011;9974;52.146;14.668;2022-10-19T07:53:51;5.25;;;1.10;;
19651;SDS011;9974;52.146;14.668;2022-10-19T07:56:21;6.93;;;1.85;;
19651;SDS011;9974;52.146;14.668;2022-10-19T07:58:49;8.48;;;1.33;;
19651;SDS011;9974;52.146;14.668;2022-10-19T08:01:18;6.65;;;1.27;;
19651;SDS011;9974;52.146;14.668;2022-10-19T08:03:57;4.88;;;1.40;;
19651;SDS011;9974;52.146;14.668;2022-10-19T08:06:25;4.03;;;1.30;;
19651;SDS011;9974;52.146;14.668;2022-10-19T08:08:51;3.35;;;1.00;;
19651;SDS011;9974;52.146;14.668;2022-10-19T08:11:19;2.53;;;1.40;;
19651;SDS011;9974;52.146;14.668;2022-10-19T08:13:58;5.13;;;1.15;;
19651;SDS011;9974;52.146;14.668;2022-10-19T08:16:31;4.78;;;1.23;;
19651;SDS011;9974;52.146;14.668;2022-10-19T08:19:07;4.35;;;1.95;;
19651;SDS011;9974;52.146;14.668;2022-10-19T08:21:35;4.38;;;0.93;;
19651;SDS011;9974;52.146;14.668;2022-10-19T08:24:02;3.35;;;1.23;;
19651;SDS011;9974;52.146;14.668;2022-10-19T08:26:28;5.65;;;1.85;;
19651;SDS011;9974;52.146;14.668;2022-10-19T08:28:58;8.57;;;3.42;;
19651;SDS011;9974;52.146;14.668;2022-10-19T08:31:37;4.93;;;1.63;;
19651;SDS011;9974;52.146;14.668;2022-10-19T08:34:04;1.85;;;0.88;;
19651;SDS011;9974;52.146;14.668;2022-10-19T08:36:30;7.00;;;2.80;;
19651;SDS011;9974;52.146;14.668;2022-10-19T08:38:56;6.07;;;2.33;;
19651;SDS011;9974;52.146;14.668;2022-10-19T08:41:34;5.78;;;1.38;;
19651;SDS011;9974;52.146;14.668;2022-10-19T08:44:10;4.50;;;1.73;;
19651;SDS011;9974;52.146;14.668;2022-10-19T08:47:08;10.23;;;2.08;;
19651;SDS011;9974;52.146;14.668;2022-10-19T08:49:55;7.15;;;2.92;;
19651;SDS011;9974;52.146;14.668;2022-10-19T08:52:29;10.52;;;2.15;;
19651;SDS011;9974;52.146;14.668;2022-10-19T08:55:05;5.82;;;1.83;;
19651;SDS011;9974;52.146;14.668;2022-10-19T08:57:47;2.67;;;1.08;;
19651;SDS011;9974;52.146;14.668;2022-10-19T09:00:40;2.35;;;0.95;;
19651;SDS011;9974;52.146;14.668;2022-10-19T09:06:48;8.93;;;1.80;;
19651;SDS011;9974;52.146;14.668;2022-10-19T09:09:14;5.25;;;1.10;;
19651;SDS011;9974;52.146;14.668;2022-10-19T09:11:46;7.82;;;1.33;;
19651;SDS011;9974;52.146;14.668;2022-10-19T09:14:24;6.25;;;1.30;;
19651;SDS011;9974;52.146;14.668;2022-10-19T09:16:58;2.20;;;0.90;;
19651;SDS011;9974;52.146;14.668;2022-10-19T09:19:27;5.75;;;1.30;;
19651;SDS011;9974;52.146;14.668;2022-10-19T09:21:57;8.13;;;1.08;;
19651;SDS011;9974;52.146;14.668;2022-10-19T09:24:35;3.00;;;1.40;;
19651;SDS011;9974;52.146;14.668;2022-10-19T09:27:57;2.97;;;0.90;;
19651;SDS011;9974;52.146;14.668;2022-10-19T09:30:04;2.38;;;0.80;;
19651;SDS011;9974;52.146;14.668;2022-10-19T09:32:39;5.05;;;1.48;;
19651;SDS011;9974;52.146;14.668;2022-10-19T09:35:14;3.97;;;1.05;;
19651;SDS011;9974;52.146;14.668;2022-10-19T09:37:56;5.35;;;1.35;;
19651;SDS011;9974;52.146;14.668;2022-10-19T09:40:24;2.20;;;0.75;;
19651;SDS011;9974;52.146;14.668;2022-10-19T09:42:53;2.75;;;0.80;;
19651;SDS011;9974;52.146;14.668;2022-10-19T09:48:27;5.47;;;1.35;;
19651;SDS011;9974;52.146;14.668;2022-10-19T09:50:58;3.83;;;1.00;;
19651;SDS011;9974;52.146;14.668;2022-10-19T09:53:35;4.72;;;1.35;;
19651;SDS011;9974;52.146;14.668;2022-10-19T09:56:05;2.95;;;0.80;;
19651;SDS011;9974;52.146;14.668;2022-10-19T09:58:33;3.13;;;1.10;;
19651;SDS011;9974;52.146;14.668;2022-10-19T10:01:00;1.23;;;0.75;;
19651;SDS011;9974;52.146;14.668;2022-10-19T10:05:53;2.50;;;0.82;;
19651;SDS011;9974;52.146;14.668;2022-10-19T10:08:23;2.05;;;1.00;;
19651;SDS011;9974;52.146;14.668;2022-10-19T10:13:48;6.30;;;1.58;;
19651;SDS011;9974;52.146;14.668;2022-10-19T10:16:23;4.07;;;1.55;;
19651;SDS011;9974;52.146;14.668;2022-10-19T10:18:58;4.63;;;1.30;;
19651;SDS011;9974;52.146;14.668;2022-10-19T10:21:30;5.38;;;0.80;;
19651;SDS011;9974;52.146;14.668;2022-10-19T10:24:05;2.63;;;0.90;;
19651;SDS011;9974;52.146;14.668;2022-10-19T10:26:38;1.85;;;0.75;;
19651;SDS011;9974;52.146;14.668;2022-10-19T10:29:26;2.65;;;0.82;;
19651;SDS011;9974;52.146;14.668;2022-10-19T10:32:12;2.65;;;0.98;;
19651;SDS011;9974;52.146;14.668;2022-10-19T10:37:41;2.20;;;1.00;;
19651;SDS011;9974;52.146;14.668;2022-10-19T10:40:25;3.40;;;0.80;;
19651;SDS011;9974;52.146;14.668;2022-10-19T10:42:55;6.57;;;1.05;;
19651;SDS011;9974;52.146;14.668;2022-10-19T10:45:28;2.40;;;0.70;;
19651;SDS011;9974;52.146;14.668;2022-10-19T10:47:56;5.93;;;1.27;;
19651;SDS011;9974;52.146;14.668;2022-10-19T10:50:36;5.30;;;1.08;;
19651;SDS011;9974;52.146;14.668;2022-10-19T10:53:03;1.70;;;0.70;;
19651;SDS011;9974;52.146;14.668;2022-10-19T10:55:54;3.63;;;0.52;;
19651;SDS011;9974;52.146;14.668;2022-10-19T10:58:24;5.22;;;0.70;;
19651;SDS011;9974;52.146;14.668;2022-10-19T11:01:21;4.07;;;0.77;;
19651;SDS011;9974;52.146;14.668;2022-10-19T11:06:40;4.10;;;1.27;;
19651;SDS011;9974;52.146;14.668;2022-10-19T11:09:18;6.03;;;1.80;;
19651;SDS011;9974;52.146;14.668;2022-10-19T11:11:51;4.88;;;1.95;;
19651;SDS011;9974;52.146;14.668;2022-10-19T11:14:31;4.00;;;0.88;;
19651;SDS011;9974;52.146;14.668;2022-10-19T11:17:11;3.50;;;0.98;;
19651;SDS011;9974;52.146;14.668;2022-10-19T11:19:43;4.03;;;1.95;;
19651;SDS011;9974;52.146;14.668;2022-10-19T11:22:18;3.13;;;1.27;;
19651;SDS011;9974;52.146;14.668;2022-10-19T11:28:00;9.65;;;1.55;;
19651;SDS011;9974;52.146;14.668;2022-10-19T11:39:27;3.50;;;0.70;;
19651;SDS011;9974;52.146;14.668;2022-10-19T11:45:14;2.20;;;0.55;;
19651;SDS011;9974;52.146;14.668;2022-10-19T11:51:16;3.15;;;0.80;;
19651;SDS011;9974;52.146;14.668;2022-10-19T11:54:06;2.78;;;0.70;;
19651;SDS011;9974;52.146;14.668;2022-10-19T11:57:02;3.65;;;0.95;;
19651;SDS011;9974;52.146;14.668;2022-10-19T12:02:38;3.65;;;0.95;;
19651;SDS011;9974;52.146;14.668;2022-10-19T12:11:13;4.22;;;2.25;;
19651;SDS011;9974;52.146;14.668;2022-10-19T12:14:15;4.40;;;1.42;;
19651;SDS011;9974;52.146;14.668;2022-10-19T12:16:50;1.80;;;0.80;;
19651;SDS011;9974;52.146;14.668;2022-10-19T12:19:25;3.88;;;1.17;;
19651;SDS011;9974;52.146;14.668;2022-10-19T12:21:59;5.40;;;1.20;;
19651;SDS011;9974;52.146;14.668;2022-10-19T12:24:28;6.22;;;1.30;;
19651;SDS011;9974;52.146;14.668;2022-10-19T12:26:56;2.95;;;0.95;;
19651;SDS011;9974;52.146;14.668;2022-10-19T12:29:27;3.75;;;1.23;;
19651;SDS011;9974;52.146;14.668;2022-10-19T12:31:58;3.90;;;0.82;;
19651;SDS011;9974;52.146;14.668;2022-10-19T12:34:30;9.70;;;1.15;;
19651;SDS011;9974;52.146;14.668;2022-10-19T12:37:12;3.38;;;0.85;;
19651;SDS011;9974;52.146;14.668;2022-10-19T12:42:59;3.25;;;1.08;;
19651;SDS011;9974;52.146;14.668;2022-10-19T12:45:33;3.53;;;0.98;;
19651;SDS011;9974;52.146;14.668;2022-10-19T12:53:26;4.47;;;1.38;;
19651;SDS011;9974;52.146;14.668;2022-10-19T12:56:06;4.10;;;1.73;;
19651;SDS011;9974;52.146;14.668;2022-10-19T12:58:38;4.55;;;1.10;;
19651;SDS011;9974;52.146;14.668;2022-10-19T13:01:19;4.78;;;1.13;;
19651;SDS011;9974;52.146;14.668;2022-10-19T13:03:52;2.83;;;1.23;;
19651;SDS011;9974;52.146;14.668;2022-10-19T13:06:33;3.67;;;1.13;;
19651;SDS011;9974;52.146;14.668;2022-10-19T13:09:06;2.55;;;1.00;;
19651;SDS011;9974;52.146;14.668;2022-10-19T13:11:34;3.95;;;0.80;;
19651;SDS011;9974;52.146;14.668;2022-10-19T13:17:06;5.25;;;2.22;;
19651;SDS011;9974;52.146;14.668;2022-10-19T13:19:32;5.10;;;1.50;;
19651;SDS011;9974;52.146;14.668;2022-10-19T13:35:18;3.00;;;1.00;;
19651;SDS011;9974;52.146;14.668;2022-10-19T13:43:20;4.35;;;0.75;;
19651;SDS011;9974;52.146;14.668;2022-10-19T13:45:53;1.92;;;0.57;;
19651;SDS011;9974;52.146;14.668;2022-10-19T13:48:58;6.35;;;0.55;;
19651;SDS011;9974;52.146;14.668;2022-10-19T14:00:20;3.70;;;1.13;;
19651;SDS011;9974;52.146;14.668;2022-10-19T14:02:55;4.15;;;1.08;;
19651;SDS011;9974;52.146;14.668;2022-10-19T14:05:50;4.35;;;0.95;;
19651;SDS011;9974;52.146;14.668;2022-10-19T14:08:39;4.15;;;1.08;;
19651;SDS011;9974;52.146;14.668;2022-10-19T14:11:33;11.52;;;1.42;;
19651;SDS011;9974;52.146;14.668;2022-10-19T14:14:42;6.53;;;1.67;;
19651;SDS011;9974;52.146;14.668;2022-10-19T14:17:15;4.15;;;1.63;;
19651;SDS011;9974;52.146;14.668;2022-10-19T14:19:45;3.63;;;1.10;;
19651;SDS011;9974;52.146;14.668;2022-10-19T14:22:19;2.88;;;0.85;;
19651;SDS011;9974;52.146;14.668;2022-10-19T14:25:01;2.15;;;0.63;;
19651;SDS011;9974;52.146;14.668;2022-10-19T14:27:30;5.45;;;1.50;;
19651;SDS011;9974;52.146;14.668;2022-10-19T14:29:58;7.18;;;1.50;;
19651;SDS011;9974;52.146;14.668;2022-10-19T14:32:25;8.07;;;1.05;;
19651;SDS011;9974;52.146;14.668;2022-10-19T14:34:52;1.73;;;0.98;;
19651;SDS011;9974;52.146;14.668;2022-10-19T14:37:24;1.70;;;0.40;;
19651;SDS011;9974;52.146;14.668;2022-10-19T14:39:58;5.57;;;1.02;;
19651;SDS011;9974;52.146;14.668;2022-10-19T14:42:47;9.40;;;1.63;;
19651;SDS011;9974;52.146;14.668;2022-10-19T14:45:27;4.47;;;0.90;;
19651;SDS011;9974;52.146;14.668;2022-10-19T14:48:05;3.30;;;1.10;;
19651;SDS011;9974;52.146;14.668;2022-10-19T14:56:19;5.93;;;1.75;;
19651;SDS011;9974;52.146;14.668;2022-10-19T14:58:54;6.72;;;2.22;;
19651;SDS011;9974;52.146;14.668;2022-10-19T15:01:23;7.03;;;3.03;;
19651;SDS011;9974;52.146;14.668;2022-10-19T15:03:49;11.85;;;4.85;;
19651;SDS011;9974;52.146;14.668;2022-10-19T15:06:20;9.48;;;4.35;;
19651;SDS011;9974;52.146;14.668;2022-10-19T15:08:59;12.65;;;4.47;;
19651;SDS011;9974;52.146;14.668;2022-10-19T15:11:30;4.13;;;2.03;;
19651;SDS011;9974;52.146;14.668;2022-10-19T15:14:04;4.60;;;1.42;;
19651;SDS011;9974;52.146;14.668;2022-10-19T15:16:41;2.78;;;1.20;;
19651;SDS011;9974;52.146;14.668;2022-10-19T15:22:16;6.80;;;1.90;;
19651;SDS011;9974;52.146;14.668;2022-10-19T15:24:53;5.65;;;2.30;;
19651;SDS011;9974;52.146;14.668;2022-10-19T15:27:32;5.13;;;2.08;;
19651;SDS011;9974;52.146;14.668;2022-10-19T15:32:42;5.30;;;2.42;;
19651;SDS011;9974;52.146;14.668;2022-10-19T15:37:37;4.90;;;1.30;;
19651;SDS011;9974;52.146;14.668;2022-10-19T15:40:08;2.90;;;0.93;;
19651;SDS011;9974;52.146;14.668;2022-10-19T15:42:49;5.85;;;1.40;;
19651;SDS011;9974;52.146;14.668;2022-10-19T15:45:25;4.30;;;1.42;;
19651;SDS011;9974;52.146;14.668;2022-10-19T15:50:44;4.32;;;1.90;;
19651;SDS011;9974;52.146;14.668;2022-10-19T15:53:12;2.63;;;0.90;;
19651;SDS011;9974;52.146;14.668;2022-10-19T15:55:38;1.83;;;1.02;;
19651;SDS011;9974;52.146;14.668;2022-10-19T15:58:05;2.45;;;1.40;;
19651;SDS011;9974;52.146;14.668;2022-10-19T16:00:31;4.72;;;1.08;;
19651;SDS011;9974;52.146;14.668;2022-10-19T16:02:56;3.90;;;1.17;;
19651;SDS011;9974;52.146;14.668;2022-10-19T16:05:23;4.10;;;1.67;;
19651;SDS011;9974;52.146;14.668;2022-10-19T16:07:48;3.50;;;1.77;;
19651;SDS011;9974;52.146;14.668;2022-10-19T16:10:15;2.30;;;1.77;;
19651;SDS011;9974;52.146;14.668;2022-10-19T16:12:44;2.55;;;1.10;;
19651;SDS011;9974;52.146;14.668;2022-10-19T16:15:11;3.35;;;1.45;;
19651;SDS011;9974;52.146;14.668;2022-10-19T16:17:42;1.90;;;1.05;;
19651;SDS011;9974;52.146;14.668;2022-10-19T16:20:10;2.65;;;1.38;;
19651;SDS011;9974;52.146;14.668;2022-10-19T16:22:37;2.85;;;1.13;;
19651;SDS011;9974;52.146;14.668;2022-10-19T16:25:03;5.18;;;1.88;;
19651;SDS011;9974;52.146;14.668;2022-10-19T16:27:29;4.20;;;1.63;;
19651;SDS011;9974;52.146;14.668;2022-10-19T16:29:55;2.67;;;1.55;;
19651;SDS011;9974;52.146;14.668;2022-10-19T16:32:22;2.70;;;1.75;;
19651;SDS011;9974;52.146;14.668;2022-10-19T16:34:48;4.00;;;1.95;;
19651;SDS011;9974;52.146;14.668;2022-10-19T16:37:14;2.33;;;1.40;;
19651;SDS011;9974;52.146;14.668;2022-10-19T16:39:39;2.85;;;1.23;;
19651;SDS011;9974;52.146;14.668;2022-10-19T16:42:05;1.38;;;1.05;;
19651;SDS011;9974;52.146;14.668;2022-10-19T16:44:31;2.75;;;1.42;;
19651;SDS011;9974;52.146;14.668;2022-10-19T16:46:57;2.22;;;1.35;;
19651;SDS011;9974;52.146;14.668;2022-10-19T16:49:23;4.05;;;1.55;;
19651;SDS011;9974;52.146;14.668;2022-10-19T16:51:50;5.18;;;2.00;;
19651;SDS011;9974;52.146;14.668;2022-10-19T16:54:15;4.68;;;1.50;;
19651;SDS011;9974;52.146;14.668;2022-10-19T16:56:42;4.80;;;1.60;;
19651;SDS011;9974;52.146;14.668;2022-10-19T16:59:11;3.25;;;1.38;;
19651;SDS011;9974;52.146;14.668;2022-10-19T17:01:39;3.17;;;1.75;;
19651;SDS011;9974;52.146;14.668;2022-10-19T17:04:06;2.55;;;1.50;;
19651;SDS011;9974;52.146;14.668;2022-10-19T17:06:32;3.35;;;1.58;;
19651;SDS011;9974;52.146;14.668;2022-10-19T17:08:58;3.75;;;2.17;;